sensor_id;sensor_type;location;lat;lon;timestamp;P1;durP1;ratioP1;P2;durP2;ratioP2
38843;SDS011;24596;48.080;8.362;2024-03-08T00:01:59;43.53;;;22.00;;
38843;SDS011;24596;48.080;8.362;2024-03-08T00:04:24;48.75;;;21.83;;
38843;SDS011;24596;48.080;8.362;2024-03-08T00:06:50;45.83;;;22.10;;
38843;SDS011;24596;48.080;8.362;2024-03-08T00:09:15;49.92;;;21.27;;
38843;SDS011;24596;48.080;8.362;2024-03-08T00:11:41;40.78;;;20.40;;
38843;SDS011;24596;48.080;8.362;2024-03-08T00:14:06;41.42;;;20.52;;
38843;SDS011;24596;48.080;8.362;2024-03-08T00:16:32;46.47;;;22.75;;
38843;SDS011;24596;48.080;8.362;2024-03-08T00:18:57;42.17;;;20.77;;
38843;SDS011;24596;48.080;8.362;2024-03-08T00:21:22;40.55;;;20.77;;
38843;SDS011;24596;48.080;8.362;2024-03-08T00:23:47;42.70;;;21.80;;
38843;SDS011;24596;48.080;8.362;2024-03-08T00:26:13;45.63;;;20.73;;
38843;SDS011;24596;48.080;8.362;2024-03-08T00:28:38;45.58;;;21.25;;
38843;SDS011;24596;48.080;8.362;2024-03-08T00:31:03;42.95;;;20.95;;
38843;SDS011;24596;48.080;8.362;2024-03-08T00:33:28;42.38;;;20.88;;
38843;SDS011;24596;48.080;8.362;2024-03-08T00:35:54;38.33;;;19.75;;
38843;SDS011;24596;48.080;8.362;2024-03-08T00:38:19;41.20;;;21.23;;
38843;SDS011;24596;48.080;8.362;2024-03-08T00:40:44;41.70;;;21.33;;
38843;SDS011;24596;48.080;8.362;2024-03-08T00:43:09;43.05;;;21.00;;
38843;SDS011;24596;48.080;8.362;2024-03-08T00:45:35;37.70;;;20.05;;
38843;SDS011;24596;48.080;8.362;2024-03-08T00:48:00;40.67;;;21.73;;
38843;SDS011;24596;48.080;8.362;2024-03-08T00:50:25;40.78;;;20.50;;
38843;SDS011;24596;48.080;8.362;2024-03-08T00:52:50;38.25;;;19.98;;
38843;SDS011;24596;48.080;8.362;2024-03-08T00:55:16;37.97;;;19.80;;
38843;SDS011;24596;48.080;8.362;2024-03-08T00:57:41;41.67;;;19.73;;
38843;SDS011;24596;48.080;8.362;2024-03-08T01:00:07;38.97;;;18.90;;
38843;SDS011;24596;48.080;8.362;2024-03-08T01:02:35;37.45;;;19.20;;
38843;SDS011;24596;48.080;8.362;2024-03-08T01:05:00;36.80;;;18.13;;
38843;SDS011;24596;48.080;8.362;2024-03-08T01:07:25;39.55;;;20.75;;
38843;SDS011;24596;48.080;8.362;2024-03-08T01:09:51;39.25;;;17.35;;
38843;SDS011;24596;48.080;8.362;2024-03-08T01:12:16;37.70;;;19.83;;
38843;SDS011;24596;48.080;8.362;2024-03-08T01:14:41;39.33;;;19.45;;
38843;SDS011;24596;48.080;8.362;2024-03-08T01:17:06;37.75;;;19.92;;
38843;SDS011;24596;48.080;8.362;2024-03-08T01:19:31;40.88;;;19.65;;
38843;SDS011;24596;48.080;8.362;2024-03-08T01:21:58;34.55;;;18.08;;
38843;SDS011;24596;48.080;8.362;2024-03-08T01:24:23;39.78;;;18.70;;
38843;SDS011;24596;48.080;8.362;2024-03-08T01:26:48;36.35;;;19.25;;
38843;SDS011;24596;48.080;8.362;2024-03-08T01:29:13;42.05;;;21.48;;
38843;SDS011;24596;48.080;8.362;2024-03-08T01:31:39;40.95;;;19.13;;
38843;SDS011;24596;48.080;8.362;2024-03-08T01:34:04;38.63;;;18.95;;
38843;SDS011;24596;48.080;8.362;2024-03-08T01:36:30;36.55;;;18.25;;
38843;SDS011;24596;48.080;8.362;2024-03-08T01:38:57;36.45;;;18.83;;
38843;SDS011;24596;48.080;8.362;2024-03-08T01:41:23;40.75;;;19.15;;
38843;SDS011;24596;48.080;8.362;2024-03-08T01:43:48;39.63;;;20.48;;
38843;SDS011;24596;48.080;8.362;2024-03-08T01:46:15;38.33;;;19.02;;
38843;SDS011;24596;48.080;8.362;2024-03-08T01:48:41;37.95;;;19.45;;
38843;SDS011;24596;48.080;8.362;2024-03-08T01:51:07;42.63;;;20.40;;
38843;SDS011;24596;48.080;8.362;2024-03-08T01:53:32;38.50;;;18.27;;
38843;SDS011;24596;48.080;8.362;2024-03-08T01:55:58;38.20;;;20.08;;
38843;SDS011;24596;48.080;8.362;2024-03-08T01:58:24;39.17;;;19.65;;
38843;SDS011;24596;48.080;8.362;2024-03-08T02:00:51;38.17;;;20.50;;
38843;SDS011;24596;48.080;8.362;2024-03-08T02:03:18;36.40;;;17.67;;
38843;SDS011;24596;48.080;8.362;2024-03-08T02:05:43;39.83;;;20.45;;
38843;SDS011;24596;48.080;8.362;2024-03-08T02:08:08;42.05;;;20.58;;
38843;SDS011;24596;48.080;8.362;2024-03-08T02:10:38;40.47;;;19.48;;
38843;SDS011;24596;48.080;8.362;2024-03-08T02:13:03;39.38;;;20.00;;
38843;SDS011;24596;48.080;8.362;2024-03-08T02:18:29;40.28;;;19.92;;
38843;SDS011;24596;48.080;8.362;2024-03-08T02:20:55;39.67;;;19.35;;
38843;SDS011;24596;48.080;8.362;2024-03-08T02:23:21;35.25;;;17.10;;
38843;SDS011;24596;48.080;8.362;2024-03-08T02:25:47;39.63;;;20.17;;
38843;SDS011;24596;48.080;8.362;2024-03-08T02:28:13;41.65;;;20.63;;
38843;SDS011;24596;48.080;8.362;2024-03-08T02:30:38;44.35;;;20.30;;
38843;SDS011;24596;48.080;8.362;2024-03-08T02:33:07;37.70;;;19.90;;
38843;SDS011;24596;48.080;8.362;2024-03-08T02:35:32;45.08;;;20.52;;
38843;SDS011;24596;48.080;8.362;2024-03-08T02:37:58;38.45;;;19.90;;
38843;SDS011;24596;48.080;8.362;2024-03-08T02:40:23;38.63;;;18.50;;
38843;SDS011;24596;48.080;8.362;2024-03-08T02:42:48;42.50;;;20.80;;
38843;SDS011;24596;48.080;8.362;2024-03-08T02:45:14;42.47;;;21.38;;
38843;SDS011;24596;48.080;8.362;2024-03-08T02:47:39;44.58;;;22.20;;
38843;SDS011;24596;48.080;8.362;2024-03-08T02:50:04;38.60;;;19.73;;
38843;SDS011;24596;48.080;8.362;2024-03-08T02:52:32;46.90;;;22.80;;
38843;SDS011;24596;48.080;8.362;2024-03-08T02:54:58;43.53;;;20.27;;
38843;SDS011;24596;48.080;8.362;2024-03-08T02:57:23;42.58;;;20.38;;
38843;SDS011;24596;48.080;8.362;2024-03-08T02:59:49;41.58;;;22.95;;
38843;SDS011;24596;48.080;8.362;2024-03-08T03:02:15;43.95;;;20.95;;
38843;SDS011;24596;48.080;8.362;2024-03-08T03:04:41;42.55;;;19.70;;
38843;SDS011;24596;48.080;8.362;2024-03-08T03:07:06;44.78;;;21.73;;
38843;SDS011;24596;48.080;8.362;2024-03-08T03:09:31;40.15;;;19.70;;
38843;SDS011;24596;48.080;8.362;2024-03-08T03:11:58;44.65;;;20.05;;
38843;SDS011;24596;48.080;8.362;2024-03-08T03:14:23;35.38;;;19.27;;
38843;SDS011;24596;48.080;8.362;2024-03-08T03:16:48;39.10;;;18.33;;
38843;SDS011;24596;48.080;8.362;2024-03-08T03:19:13;40.20;;;19.55;;
38843;SDS011;24596;48.080;8.362;2024-03-08T03:21:40;39.28;;;19.17;;
38843;SDS011;24596;48.080;8.362;2024-03-08T03:24:08;42.08;;;20.45;;
38843;SDS011;24596;48.080;8.362;2024-03-08T03:26:35;42.42;;;19.90;;
38843;SDS011;24596;48.080;8.362;2024-03-08T03:29:02;42.65;;;20.70;;
38843;SDS011;24596;48.080;8.362;2024-03-08T03:31:28;43.80;;;21.63;;
38843;SDS011;24596;48.080;8.362;2024-03-08T03:33:53;37.17;;;19.20;;
38843;SDS011;24596;48.080;8.362;2024-03-08T03:36:19;44.97;;;21.15;;
38843;SDS011;24596;48.080;8.362;2024-03-08T03:38:45;46.83;;;20.80;;
38843;SDS011;24596;48.080;8.362;2024-03-08T03:41:10;40.80;;;19.88;;
38843;SDS011;24596;48.080;8.362;2024-03-08T03:43:36;41.13;;;21.05;;
38843;SDS011;24596;48.080;8.362;2024-03-08T03:46:05;33.28;;;17.27;;
38843;SDS011;24596;48.080;8.362;2024-03-08T03:48:30;43.35;;;20.13;;
38843;SDS011;24596;48.080;8.362;2024-03-08T03:50:57;42.28;;;20.00;;
38843;SDS011;24596;48.080;8.362;2024-03-08T03:53:22;39.75;;;18.58;;
38843;SDS011;24596;48.080;8.362;2024-03-08T03:55:47;39.97;;;19.20;;
38843;SDS011;24596;48.080;8.362;2024-03-08T03:58:12;38.65;;;19.17;;
38843;SDS011;24596;48.080;8.362;2024-03-08T04:00:37;40.80;;;17.15;;
38843;SDS011;24596;48.080;8.362;2024-03-08T04:03:03;42.42;;;19.83;;
38843;SDS011;24596;48.080;8.362;2024-03-08T04:05:28;37.03;;;18.17;;
38843;SDS011;24596;48.080;8.362;2024-03-08T04:07:53;33.25;;;15.65;;
38843;SDS011;24596;48.080;8.362;2024-03-08T04:10:18;42.90;;;19.10;;
38843;SDS011;24596;48.080;8.362;2024-03-08T04:12:45;42.00;;;18.17;;
38843;SDS011;24596;48.080;8.362;2024-03-08T04:15:10;46.15;;;20.40;;
38843;SDS011;24596;48.080;8.362;2024-03-08T04:17:35;49.17;;;21.52;;
38843;SDS011;24596;48.080;8.362;2024-03-08T04:20:02;47.60;;;20.48;;
38843;SDS011;24596;48.080;8.362;2024-03-08T04:22:32;44.53;;;19.85;;
38843;SDS011;24596;48.080;8.362;2024-03-08T04:24:57;41.17;;;17.98;;
38843;SDS011;24596;48.080;8.362;2024-03-08T04:27:23;44.88;;;20.00;;
38843;SDS011;24596;48.080;8.362;2024-03-08T04:29:48;42.95;;;19.50;;
38843;SDS011;24596;48.080;8.362;2024-03-08T04:32:13;43.50;;;19.58;;
38843;SDS011;24596;48.080;8.362;2024-03-08T04:34:39;41.95;;;20.95;;
38843;SDS011;24596;48.080;8.362;2024-03-08T04:37:04;43.72;;;21.08;;
38843;SDS011;24596;48.080;8.362;2024-03-08T04:39:29;47.60;;;19.95;;
38843;SDS011;24596;48.080;8.362;2024-03-08T04:41:56;42.35;;;20.08;;
38843;SDS011;24596;48.080;8.362;2024-03-08T04:44:23;46.45;;;21.52;;
38843;SDS011;24596;48.080;8.362;2024-03-08T04:46:49;42.38;;;20.65;;
38843;SDS011;24596;48.080;8.362;2024-03-08T04:49:14;42.83;;;20.08;;
38843;SDS011;24596;48.080;8.362;2024-03-08T04:51:39;46.40;;;21.80;;
38843;SDS011;24596;48.080;8.362;2024-03-08T04:54:05;46.58;;;21.50;;
38843;SDS011;24596;48.080;8.362;2024-03-08T04:56:30;47.10;;;21.58;;
38843;SDS011;24596;48.080;8.362;2024-03-08T04:58:56;42.33;;;19.27;;
38843;SDS011;24596;48.080;8.362;2024-03-08T05:01:21;45.30;;;22.25;;
38843;SDS011;24596;48.080;8.362;2024-03-08T05:03:47;44.63;;;20.92;;
38843;SDS011;24596;48.080;8.362;2024-03-08T05:06:14;42.40;;;20.38;;
38843;SDS011;24596;48.080;8.362;2024-03-08T05:08:40;43.45;;;19.00;;
38843;SDS011;24596;48.080;8.362;2024-03-08T05:11:05;44.45;;;19.90;;
38843;SDS011;24596;48.080;8.362;2024-03-08T05:13:32;44.65;;;20.10;;
38843;SDS011;24596;48.080;8.362;2024-03-08T05:15:57;43.65;;;18.70;;
38843;SDS011;24596;48.080;8.362;2024-03-08T05:18:23;50.70;;;21.25;;
38843;SDS011;24596;48.080;8.362;2024-03-08T05:20:48;47.30;;;22.65;;
38843;SDS011;24596;48.080;8.362;2024-03-08T05:23:14;45.25;;;17.52;;
38843;SDS011;24596;48.080;8.362;2024-03-08T05:25:39;46.90;;;21.30;;
38843;SDS011;24596;48.080;8.362;2024-03-08T05:28:04;48.90;;;22.33;;
38843;SDS011;24596;48.080;8.362;2024-03-08T05:30:29;46.88;;;21.08;;
38843;SDS011;24596;48.080;8.362;2024-03-08T05:32:55;53.05;;;23.35;;
38843;SDS011;24596;48.080;8.362;2024-03-08T05:35:20;45.38;;;20.65;;
38843;SDS011;24596;48.080;8.362;2024-03-08T05:37:45;56.08;;;21.73;;
38843;SDS011;24596;48.080;8.362;2024-03-08T05:40:11;45.78;;;20.88;;
38843;SDS011;24596;48.080;8.362;2024-03-08T05:42:36;47.90;;;22.30;;
38843;SDS011;24596;48.080;8.362;2024-03-08T05:45:02;61.33;;;22.92;;
38843;SDS011;24596;48.080;8.362;2024-03-08T05:47:27;46.80;;;20.38;;
38843;SDS011;24596;48.080;8.362;2024-03-08T05:49:52;51.78;;;20.75;;
38843;SDS011;24596;48.080;8.362;2024-03-08T05:52:18;61.90;;;19.95;;
38843;SDS011;24596;48.080;8.362;2024-03-08T05:54:43;53.75;;;18.30;;
38843;SDS011;24596;48.080;8.362;2024-03-08T05:57:10;65.40;;;22.27;;
38843;SDS011;24596;48.080;8.362;2024-03-08T05:59:35;58.42;;;19.23;;
38843;SDS011;24596;48.080;8.362;2024-03-08T06:02:01;70.28;;;18.15;;
38843;SDS011;24596;48.080;8.362;2024-03-08T06:04:28;51.30;;;21.13;;
38843;SDS011;24596;48.080;8.362;2024-03-08T06:06:54;59.83;;;21.13;;
38843;SDS011;24596;48.080;8.362;2024-03-08T06:09:20;99.57;;;21.02;;
38843;SDS011;24596;48.080;8.362;2024-03-08T06:11:48;78.88;;;21.05;;
38843;SDS011;24596;48.080;8.362;2024-03-08T06:14:13;64.40;;;20.58;;
38843;SDS011;24596;48.080;8.362;2024-03-08T06:16:41;49.17;;;19.75;;
38843;SDS011;24596;48.080;8.362;2024-03-08T06:19:06;93.35;;;21.20;;
38843;SDS011;24596;48.080;8.362;2024-03-08T06:21:32;42.20;;;15.85;;
38843;SDS011;24596;48.080;8.362;2024-03-08T06:23:58;134.18;;;21.27;;
38843;SDS011;24596;48.080;8.362;2024-03-08T06:26:23;64.93;;;19.85;;
38843;SDS011;24596;48.080;8.362;2024-03-08T06:28:49;111.63;;;20.23;;
38843;SDS011;24596;48.080;8.362;2024-03-08T06:31:15;68.72;;;21.77;;
38843;SDS011;24596;48.080;8.362;2024-03-08T06:33:41;66.93;;;19.92;;
38843;SDS011;24596;48.080;8.362;2024-03-08T06:36:06;75.25;;;17.45;;
38843;SDS011;24596;48.080;8.362;2024-03-08T06:38:32;135.02;;;21.33;;
38843;SDS011;24596;48.080;8.362;2024-03-08T06:40:57;359.05;;;33.85;;
38843;SDS011;24596;48.080;8.362;2024-03-08T06:43:23;175.70;;;21.48;;
38843;SDS011;24596;48.080;8.362;2024-03-08T06:45:50;45.58;;;17.70;;
38843;SDS011;24596;48.080;8.362;2024-03-08T06:48:15;191.73;;;24.90;;
38843;SDS011;24596;48.080;8.362;2024-03-08T06:50:42;38.42;;;16.13;;
38843;SDS011;24596;48.080;8.362;2024-03-08T06:53:07;54.53;;;17.95;;
38843;SDS011;24596;48.080;8.362;2024-03-08T06:55:32;60.13;;;17.52;;
38843;SDS011;24596;48.080;8.362;2024-03-08T06:57:58;53.13;;;19.25;;
38843;SDS011;24596;48.080;8.362;2024-03-08T07:00:23;41.13;;;18.02;;
38843;SDS011;24596;48.080;8.362;2024-03-08T07:02:51;107.35;;;18.42;;
38843;SDS011;24596;48.080;8.362;2024-03-08T07:05:18;61.38;;;17.50;;
38843;SDS011;24596;48.080;8.362;2024-03-08T07:07:43;44.78;;;17.45;;
38843;SDS011;24596;48.080;8.362;2024-03-08T07:10:09;65.80;;;17.90;;
38843;SDS011;24596;48.080;8.362;2024-03-08T07:12:40;45.75;;;15.43;;
38843;SDS011;24596;48.080;8.362;2024-03-08T07:15:05;63.42;;;17.58;;
38843;SDS011;24596;48.080;8.362;2024-03-08T07:17:31;49.67;;;17.20;;
38843;SDS011;24596;48.080;8.362;2024-03-08T07:19:59;42.60;;;15.93;;
38843;SDS011;24596;48.080;8.362;2024-03-08T07:22:24;41.08;;;15.85;;
38843;SDS011;24596;48.080;8.362;2024-03-08T07:24:49;34.53;;;14.65;;
38843;SDS011;24596;48.080;8.362;2024-03-08T07:27:35;40.47;;;14.45;;
38843;SDS011;24596;48.080;8.362;2024-03-08T07:30:01;31.20;;;14.48;;
38843;SDS011;24596;48.080;8.362;2024-03-08T07:32:27;32.97;;;13.80;;
38843;SDS011;24596;48.080;8.362;2024-03-08T07:34:54;33.42;;;14.88;;
38843;SDS011;24596;48.080;8.362;2024-03-08T07:37:20;31.42;;;14.43;;
38843;SDS011;24596;48.080;8.362;2024-03-08T07:39:45;31.23;;;12.43;;
38843;SDS011;24596;48.080;8.362;2024-03-08T07:42:11;32.78;;;11.73;;
38843;SDS011;24596;48.080;8.362;2024-03-08T07:44:36;38.10;;;12.07;;
38843;SDS011;24596;48.080;8.362;2024-03-08T07:47:02;31.55;;;12.43;;
38843;SDS011;24596;48.080;8.362;2024-03-08T07:49:28;32.50;;;12.20;;
38843;SDS011;24596;48.080;8.362;2024-03-08T07:51:53;35.17;;;14.20;;
38843;SDS011;24596;48.080;8.362;2024-03-08T07:54:19;34.78;;;12.30;;
38843;SDS011;24596;48.080;8.362;2024-03-08T07:56:45;38.85;;;13.80;;
38843;SDS011;24596;48.080;8.362;2024-03-08T07:59:10;31.73;;;14.27;;
38843;SDS011;24596;48.080;8.362;2024-03-08T08:01:37;43.78;;;13.77;;
38843;SDS011;24596;48.080;8.362;2024-03-08T08:04:02;39.00;;;14.55;;
38843;SDS011;24596;48.080;8.362;2024-03-08T08:06:27;31.25;;;13.40;;
38843;SDS011;24596;48.080;8.362;2024-03-08T08:08:53;37.15;;;12.73;;
38843;SDS011;24596;48.080;8.362;2024-03-08T08:11:18;28.60;;;11.57;;
38843;SDS011;24596;48.080;8.362;2024-03-08T08:13:43;29.45;;;13.35;;
38843;SDS011;24596;48.080;8.362;2024-03-08T08:16:09;29.88;;;12.27;;
38843;SDS011;24596;48.080;8.362;2024-03-08T08:18:35;29.83;;;12.38;;
38843;SDS011;24596;48.080;8.362;2024-03-08T08:21:01;32.67;;;14.07;;
38843;SDS011;24596;48.080;8.362;2024-03-08T08:23:26;31.02;;;14.05;;
38843;SDS011;24596;48.080;8.362;2024-03-08T08:25:52;30.60;;;13.85;;
38843;SDS011;24596;48.080;8.362;2024-03-08T08:28:17;26.52;;;11.50;;
38843;SDS011;24596;48.080;8.362;2024-03-08T08:30:43;29.02;;;12.50;;
38843;SDS011;24596;48.080;8.362;2024-03-08T08:33:09;29.08;;;12.55;;
38843;SDS011;24596;48.080;8.362;2024-03-08T08:35:35;26.15;;;12.15;;
38843;SDS011;24596;48.080;8.362;2024-03-08T08:38:00;29.67;;;13.60;;
38843;SDS011;24596;48.080;8.362;2024-03-08T08:40:26;30.73;;;13.63;;
38843;SDS011;24596;48.080;8.362;2024-03-08T08:42:51;32.17;;;15.32;;
38843;SDS011;24596;48.080;8.362;2024-03-08T08:45:18;27.75;;;13.05;;
38843;SDS011;24596;48.080;8.362;2024-03-08T08:47:46;29.45;;;14.05;;
38843;SDS011;24596;48.080;8.362;2024-03-08T08:50:12;28.65;;;11.80;;
38843;SDS011;24596;48.080;8.362;2024-03-08T08:52:38;29.33;;;12.23;;
38843;SDS011;24596;48.080;8.362;2024-03-08T08:55:04;33.67;;;14.98;;
38843;SDS011;24596;48.080;8.362;2024-03-08T08:57:29;34.08;;;14.10;;
38843;SDS011;24596;48.080;8.362;2024-03-08T08:59:57;29.65;;;13.10;;
38843;SDS011;24596;48.080;8.362;2024-03-08T09:02:23;33.95;;;14.65;;
38843;SDS011;24596;48.080;8.362;2024-03-08T09:04:48;32.25;;;14.00;;
38843;SDS011;24596;48.080;8.362;2024-03-08T09:07:13;32.33;;;13.98;;
38843;SDS011;24596;48.080;8.362;2024-03-08T09:09:38;32.65;;;15.15;;
38843;SDS011;24596;48.080;8.362;2024-03-08T09:12:04;39.28;;;15.88;;
38843;SDS011;24596;48.080;8.362;2024-03-08T09:14:29;37.78;;;16.50;;
38843;SDS011;24596;48.080;8.362;2024-03-08T09:16:54;35.25;;;15.05;;
38843;SDS011;24596;48.080;8.362;2024-03-08T09:19:20;37.35;;;14.98;;
38843;SDS011;24596;48.080;8.362;2024-03-08T09:21:45;29.42;;;13.93;;
38843;SDS011;24596;48.080;8.362;2024-03-08T09:24:11;35.35;;;15.32;;
38843;SDS011;24596;48.080;8.362;2024-03-08T09:26:37;38.72;;;15.57;;
38843;SDS011;24596;48.080;8.362;2024-03-08T09:29:02;38.00;;;16.00;;
38843;SDS011;24596;48.080;8.362;2024-03-08T09:31:28;34.88;;;13.75;;
38843;SDS011;24596;48.080;8.362;2024-03-08T09:33:53;35.58;;;15.48;;
38843;SDS011;24596;48.080;8.362;2024-03-08T09:36:18;34.28;;;15.27;;
38843;SDS011;24596;48.080;8.362;2024-03-08T09:38:43;32.47;;;16.33;;
38843;SDS011;24596;48.080;8.362;2024-03-08T09:41:09;35.35;;;16.25;;
38843;SDS011;24596;48.080;8.362;2024-03-08T09:43:35;35.70;;;15.77;;
38843;SDS011;24596;48.080;8.362;2024-03-08T09:46:00;31.17;;;14.68;;
38843;SDS011;24596;48.080;8.362;2024-03-08T09:48:26;36.55;;;16.58;;
38843;SDS011;24596;48.080;8.362;2024-03-08T09:50:52;34.75;;;15.05;;
38843;SDS011;24596;48.080;8.362;2024-03-08T09:53:17;30.58;;;15.35;;
38843;SDS011;24596;48.080;8.362;2024-03-08T09:55:42;35.63;;;15.85;;
38843;SDS011;24596;48.080;8.362;2024-03-08T09:58:10;36.25;;;15.15;;
38843;SDS011;24596;48.080;8.362;2024-03-08T10:01:01;36.35;;;16.48;;
38843;SDS011;24596;48.080;8.362;2024-03-08T10:03:32;33.13;;;14.65;;
38843;SDS011;24596;48.080;8.362;2024-03-08T10:05:57;36.95;;;16.05;;
38843;SDS011;24596;48.080;8.362;2024-03-08T10:08:26;35.97;;;15.00;;
38843;SDS011;24596;48.080;8.362;2024-03-08T10:10:51;28.55;;;15.23;;
38843;SDS011;24596;48.080;8.362;2024-03-08T10:13:16;32.13;;;15.35;;
38843;SDS011;24596;48.080;8.362;2024-03-08T10:15:44;35.50;;;15.13;;
38843;SDS011;24596;48.080;8.362;2024-03-08T10:18:09;30.00;;;13.73;;
38843;SDS011;24596;48.080;8.362;2024-03-08T10:20:35;36.08;;;16.27;;
38843;SDS011;24596;48.080;8.362;2024-03-08T10:23:01;33.03;;;16.60;;
38843;SDS011;24596;48.080;8.362;2024-03-08T10:25:28;30.25;;;15.93;;
38843;SDS011;24596;48.080;8.362;2024-03-08T10:27:55;34.33;;;16.08;;
38843;SDS011;24596;48.080;8.362;2024-03-08T10:30:20;29.23;;;13.70;;
38843;SDS011;24596;48.080;8.362;2024-03-08T10:32:46;31.75;;;14.98;;
38843;SDS011;24596;48.080;8.362;2024-03-08T10:35:12;31.08;;;14.82;;
38843;SDS011;24596;48.080;8.362;2024-03-08T10:37:50;30.25;;;15.35;;
38843;SDS011;24596;48.080;8.362;2024-03-08T10:40:23;28.50;;;15.00;;
38843;SDS011;24596;48.080;8.362;2024-03-08T10:45:36;30.48;;;14.18;;
38843;SDS011;24596;48.080;8.362;2024-03-08T10:48:04;31.73;;;16.13;;
38843;SDS011;24596;48.080;8.362;2024-03-08T10:52:59;31.25;;;14.82;;
38843;SDS011;24596;48.080;8.362;2024-03-08T10:55:26;30.63;;;15.35;;
38843;SDS011;24596;48.080;8.362;2024-03-08T10:57:53;30.73;;;16.40;;
38843;SDS011;24596;48.080;8.362;2024-03-08T11:00:19;27.15;;;14.02;;
38843;SDS011;24596;48.080;8.362;2024-03-08T11:02:50;30.42;;;16.73;;
38843;SDS011;24596;48.080;8.362;2024-03-08T11:08:00;29.17;;;15.45;;
38843;SDS011;24596;48.080;8.362;2024-03-08T11:10:25;25.75;;;15.00;;
38843;SDS011;24596;48.080;8.362;2024-03-08T11:12:51;28.00;;;13.43;;
38843;SDS011;24596;48.080;8.362;2024-03-08T11:15:16;27.38;;;14.13;;
38843;SDS011;24596;48.080;8.362;2024-03-08T11:17:45;28.08;;;14.45;;
38843;SDS011;24596;48.080;8.362;2024-03-08T11:20:14;24.48;;;13.90;;
38843;SDS011;24596;48.080;8.362;2024-03-08T11:22:41;24.88;;;13.10;;
38843;SDS011;24596;48.080;8.362;2024-03-08T11:25:08;24.80;;;13.68;;
38843;SDS011;24596;48.080;8.362;2024-03-08T11:27:38;26.95;;;13.55;;
38843;SDS011;24596;48.080;8.362;2024-03-08T11:30:04;29.77;;;15.75;;
38843;SDS011;24596;48.080;8.362;2024-03-08T11:32:36;26.10;;;13.95;;
38843;SDS011;24596;48.080;8.362;2024-03-08T11:35:04;24.70;;;12.95;;
38843;SDS011;24596;48.080;8.362;2024-03-08T11:37:32;26.40;;;13.70;;
38843;SDS011;24596;48.080;8.362;2024-03-08T11:39:59;24.90;;;13.52;;
38843;SDS011;24596;48.080;8.362;2024-03-08T11:42:26;26.30;;;12.98;;
38843;SDS011;24596;48.080;8.362;2024-03-08T11:44:51;24.75;;;13.15;;
38843;SDS011;24596;48.080;8.362;2024-03-08T11:47:17;22.98;;;12.63;;
38843;SDS011;24596;48.080;8.362;2024-03-08T11:49:42;22.77;;;13.02;;
38843;SDS011;24596;48.080;8.362;2024-03-08T11:52:13;25.23;;;12.38;;
38843;SDS011;24596;48.080;8.362;2024-03-08T11:54:39;21.02;;;11.82;;
38843;SDS011;24596;48.080;8.362;2024-03-08T11:57:04;18.25;;;10.98;;
38843;SDS011;24596;48.080;8.362;2024-03-08T11:59:30;20.13;;;11.32;;
38843;SDS011;24596;48.080;8.362;2024-03-08T12:02:02;18.55;;;10.27;;
38843;SDS011;24596;48.080;8.362;2024-03-08T12:04:28;19.27;;;11.13;;
38843;SDS011;24596;48.080;8.362;2024-03-08T12:06:53;21.20;;;11.35;;
38843;SDS011;24596;48.080;8.362;2024-03-08T12:09:19;20.55;;;10.82;;
38843;SDS011;24596;48.080;8.362;2024-03-08T12:11:47;21.00;;;10.52;;
38843;SDS011;24596;48.080;8.362;2024-03-08T12:14:12;20.13;;;10.55;;
38843;SDS011;24596;48.080;8.362;2024-03-08T12:16:37;20.67;;;10.52;;
38843;SDS011;24596;48.080;8.362;2024-03-08T12:19:03;20.15;;;9.88;;
38843;SDS011;24596;48.080;8.362;2024-03-08T12:21:31;19.02;;;10.75;;
38843;SDS011;24596;48.080;8.362;2024-03-08T12:26:28;16.70;;;9.33;;
38843;SDS011;24596;48.080;8.362;2024-03-08T12:28:53;20.05;;;9.15;;
38843;SDS011;24596;48.080;8.362;2024-03-08T12:31:19;15.80;;;9.30;;
38843;SDS011;24596;48.080;8.362;2024-03-08T12:33:51;19.00;;;9.82;;
38843;SDS011;24596;48.080;8.362;2024-03-08T12:36:17;20.95;;;10.43;;
38843;SDS011;24596;48.080;8.362;2024-03-08T12:38:46;19.02;;;10.55;;
38843;SDS011;24596;48.080;8.362;2024-03-08T12:41:17;16.83;;;9.13;;
38843;SDS011;24596;48.080;8.362;2024-03-08T12:43:43;17.67;;;10.02;;
38843;SDS011;24596;48.080;8.362;2024-03-08T12:46:15;19.60;;;10.85;;
38843;SDS011;24596;48.080;8.362;2024-03-08T12:48:40;21.20;;;10.15;;
38843;SDS011;24596;48.080;8.362;2024-03-08T12:51:06;20.60;;;11.23;;
38843;SDS011;24596;48.080;8.362;2024-03-08T12:53:32;19.10;;;11.48;;
38843;SDS011;24596;48.080;8.362;2024-03-08T12:55:57;19.48;;;11.05;;
38843;SDS011;24596;48.080;8.362;2024-03-08T12:58:22;21.13;;;11.25;;
38843;SDS011;24596;48.080;8.362;2024-03-08T13:00:48;17.23;;;9.95;;
38843;SDS011;24596;48.080;8.362;2024-03-08T13:03:13;19.88;;;10.27;;
38843;SDS011;24596;48.080;8.362;2024-03-08T13:05:38;17.95;;;10.55;;
38843;SDS011;24596;48.080;8.362;2024-03-08T13:08:07;19.13;;;10.73;;
38843;SDS011;24596;48.080;8.362;2024-03-08T13:10:38;17.33;;;10.55;;
38843;SDS011;24596;48.080;8.362;2024-03-08T13:13:03;18.60;;;10.98;;
38843;SDS011;24596;48.080;8.362;2024-03-08T13:15:29;20.42;;;11.63;;
38843;SDS011;24596;48.080;8.362;2024-03-08T13:17:55;21.45;;;11.27;;
38843;SDS011;24596;48.080;8.362;2024-03-08T13:20:22;18.10;;;9.52;;
38843;SDS011;24596;48.080;8.362;2024-03-08T13:22:48;17.52;;;10.27;;
38843;SDS011;24596;48.080;8.362;2024-03-08T13:25:13;17.58;;;10.55;;
38843;SDS011;24596;48.080;8.362;2024-03-08T13:27:41;15.20;;;9.10;;
38843;SDS011;24596;48.080;8.362;2024-03-08T13:30:08;15.77;;;8.18;;
38843;SDS011;24596;48.080;8.362;2024-03-08T13:32:37;14.63;;;8.93;;
38843;SDS011;24596;48.080;8.362;2024-03-08T13:35:04;15.45;;;9.68;;
38843;SDS011;24596;48.080;8.362;2024-03-08T13:37:37;13.20;;;8.35;;
38843;SDS011;24596;48.080;8.362;2024-03-08T13:40:02;15.27;;;8.30;;
38843;SDS011;24596;48.080;8.362;2024-03-08T13:42:30;13.68;;;7.75;;
38843;SDS011;24596;48.080;8.362;2024-03-08T13:44:55;14.35;;;7.93;;
38843;SDS011;24596;48.080;8.362;2024-03-08T13:47:21;12.82;;;7.85;;
38843;SDS011;24596;48.080;8.362;2024-03-08T13:49:46;13.52;;;7.78;;
38843;SDS011;24596;48.080;8.362;2024-03-08T13:52:11;13.32;;;7.57;;
38843;SDS011;24596;48.080;8.362;2024-03-08T13:54:41;14.15;;;8.02;;
38843;SDS011;24596;48.080;8.362;2024-03-08T13:57:06;13.50;;;8.35;;
38843;SDS011;24596;48.080;8.362;2024-03-08T13:59:32;12.40;;;7.07;;
38843;SDS011;24596;48.080;8.362;2024-03-08T14:01:58;12.60;;;7.85;;
38843;SDS011;24596;48.080;8.362;2024-03-08T14:04:24;12.30;;;7.72;;
38843;SDS011;24596;48.080;8.362;2024-03-08T14:06:51;14.73;;;9.07;;
38843;SDS011;24596;48.080;8.362;2024-03-08T14:09:21;13.23;;;8.13;;
38843;SDS011;24596;48.080;8.362;2024-03-08T14:11:49;14.93;;;8.48;;
38843;SDS011;24596;48.080;8.362;2024-03-08T14:14:14;12.70;;;8.52;;
38843;SDS011;24596;48.080;8.362;2024-03-08T14:16:40;14.10;;;8.32;;
38843;SDS011;24596;48.080;8.362;2024-03-08T14:19:05;13.77;;;8.65;;
38843;SDS011;24596;48.080;8.362;2024-03-08T14:21:33;14.90;;;8.25;;
38843;SDS011;24596;48.080;8.362;2024-03-08T14:23:58;13.63;;;8.05;;
38843;SDS011;24596;48.080;8.362;2024-03-08T14:26:24;13.02;;;8.63;;
38843;SDS011;24596;48.080;8.362;2024-03-08T14:28:49;13.18;;;8.40;;
38843;SDS011;24596;48.080;8.362;2024-03-08T14:31:19;13.85;;;7.85;;